sensor_id;sensor_type;location;lat;lon;timestamp;pressure;altitude;pressure_sealevel;temperature;humidity
16834;BME280;8533;48.426;10.868;2023-07-16T00:02:19;95825.47;;;20.46;100.00
16834;BME280;8533;48.426;10.868;2023-07-16T00:04:44;95853.28;;;20.57;100.00
16834;BME280;8533;48.426;10.868;2023-07-16T00:07:09;95873.28;;;20.63;100.00
16834;BME280;8533;48.426;10.868;2023-07-16T00:09:36;95865.50;;;20.58;100.00
16834;BME280;8533;48.426;10.868;2023-07-16T00:12:01;95942.22;;;20.77;100.00
16834;BME280;8533;48.426;10.868;2023-07-16T00:14:26;96000.09;;;20.88;100.00
16834;BME280;8533;48.426;10.868;2023-07-16T00:16:52;95983.38;;;20.79;100.00
16834;BME280;8533;48.426;10.868;2023-07-16T00:19:17;96027.47;;;20.98;100.00
16834;BME280;8533;48.426;10.868;2023-07-16T00:21:42;96034.03;;;21.00;100.00
16834;BME280;8533;48.426;10.868;2023-07-16T00:24:08;96057.34;;;21.03;100.00
16834;BME280;8533;48.426;10.868;2023-07-16T00:26:33;96063.47;;;21.04;100.00
16834;BME280;8533;48.426;10.868;2023-07-16T00:28:58;96060.97;;;20.99;100.00
16834;BME280;8533;48.426;10.868;2023-07-16T00:31:23;96044.38;;;20.93;100.00
16834;BME280;8533;48.426;10.868;2023-07-16T00:33:49;96050.47;;;21.02;100.00
16834;BME280;8533;48.426;10.868;2023-07-16T00:36:14;96061.59;;;21.04;100.00
16834;BME280;8533;48.426;10.868;2023-07-16T00:38:39;96082.88;;;21.04;100.00
16834;BME280;8533;48.426;10.868;2023-07-16T00:41:08;96075.66;;;20.96;100.00
16834;BME280;8533;48.426;10.868;2023-07-16T00:43:33;96093.97;;;21.06;100.00
16834;BME280;8533;48.426;10.868;2023-07-16T00:45:58;96091.31;;;20.98;100.00
16834;BME280;8533;48.426;10.868;2023-07-16T00:48:24;96093.81;;;21.03;100.00
16834;BME280;8533;48.426;10.868;2023-07-16T00:50:52;96101.50;;;21.13;100.00
16834;BME280;8533;48.426;10.868;2023-07-16T00:53:19;96088.19;;;21.13;100.00
16834;BME280;8533;48.426;10.868;2023-07-16T00:55:45;96021.22;;;20.76;100.00
16834;BME280;8533;48.426;10.868;2023-07-16T00:58:10;96082.88;;;21.13;100.00
16834;BME280;8533;48.426;10.868;2023-07-16T01:00:37;96081.94;;;20.91;100.00
16834;BME280;8533;48.426;10.868;2023-07-16T01:03:05;96106.97;;;20.90;100.00
16834;BME280;8533;48.426;10.868;2023-07-16T01:05:35;96121.16;;;20.77;100.00
16834;BME280;8533;48.426;10.868;2023-07-16T01:08:04;96117.84;;;20.63;100.00
16834;BME280;8533;48.426;10.868;2023-07-16T01:10:31;96111.72;;;20.54;100.00
16834;BME280;8533;48.426;10.868;2023-07-16T01:12:58;96045.72;;;19.99;100.00
16834;BME280;8533;48.426;10.868;2023-07-16T01:15:23;96114.94;;;20.34;100.00
16834;BME280;8533;48.426;10.868;2023-07-16T01:17:49;96095.16;;;20.17;100.00
16834;BME280;8533;48.426;10.868;2023-07-16T01:20:14;96082.72;;;19.96;100.00
16834;BME280;8533;48.426;10.868;2023-07-16T01:22:52;96115.25;;;20.01;100.00
16834;BME280;8533;48.426;10.868;2023-07-16T01:25:56;96096.56;;;19.84;100.00
16834;BME280;8533;48.426;10.868;2023-07-16T01:30:58;96138.66;;;19.99;100.00
16834;BME280;8533;48.426;10.868;2023-07-16T01:33:24;96146.44;;;19.96;100.00
16834;BME280;8533;48.426;10.868;2023-07-16T01:35:51;96140.47;;;19.90;100.00
16834;BME280;8533;48.426;10.868;2023-07-16T01:38:16;96147.00;;;19.84;100.00
16834;BME280;8533;48.426;10.868;2023-07-16T01:40:43;96158.88;;;19.87;100.00
16834;BME280;8533;48.426;10.868;2023-07-16T01:43:09;96161.97;;;19.80;100.00
16834;BME280;8533;48.426;10.868;2023-07-16T01:45:34;96149.63;;;19.75;100.00
16834;BME280;8533;48.426;10.868;2023-07-16T01:48:28;96148.34;;;19.73;100.00
16834;BME280;8533;48.426;10.868;2023-07-16T01:50:54;96137.06;;;19.67;100.00
16834;BME280;8533;48.426;10.868;2023-07-16T01:53:20;96138.75;;;19.63;100.00
16834;BME280;8533;48.426;10.868;2023-07-16T01:55:45;96168.19;;;19.75;100.00
16834;BME280;8533;48.426;10.868;2023-07-16T01:58:11;96159.16;;;19.76;100.00
16834;BME280;8533;48.426;10.868;2023-07-16T02:00:36;96155.50;;;19.72;100.00
16834;BME280;8533;48.426;10.868;2023-07-16T02:03:02;96169.56;;;19.73;100.00
16834;BME280;8533;48.426;10.868;2023-07-16T02:05:28;96157.03;;;19.65;100.00
16834;BME280;8533;48.426;10.868;2023-07-16T02:07:53;96166.06;;;19.64;100.00
16834;BME280;8533;48.426;10.868;2023-07-16T02:10:18;96152.19;;;19.44;100.00
16834;BME280;8533;48.426;10.868;2023-07-16T02:12:44;96169.09;;;19.49;100.00
16834;BME280;8533;48.426;10.868;2023-07-16T02:15:09;96175.06;;;19.40;100.00
16834;BME280;8533;48.426;10.868;2023-07-16T02:17:35;96184.53;;;19.33;100.00
16834;BME280;8533;48.426;10.868;2023-07-16T02:20:00;96189.66;;;19.29;100.00
16834;BME280;8533;48.426;10.868;2023-07-16T02:22:25;96186.63;;;19.22;100.00
16834;BME280;8533;48.426;10.868;2023-07-16T02:24:51;96184.09;;;19.17;100.00
16834;BME280;8533;48.426;10.868;2023-07-16T02:27:16;96194.69;;;19.17;100.00
16834;BME280;8533;48.426;10.868;2023-07-16T02:29:41;96195.59;;;19.13;100.00
16834;BME280;8533;48.426;10.868;2023-07-16T02:32:07;96191.16;;;19.08;100.00
16834;BME280;8533;48.426;10.868;2023-07-16T02:34:32;96024.13;;;17.95;100.00
16834;BME280;8533;48.426;10.868;2023-07-16T02:36:57;96187.56;;;19.04;100.00
16834;BME280;8533;48.426;10.868;2023-07-16T02:39:23;96176.94;;;19.04;100.00
16834;BME280;8533;48.426;10.868;2023-07-16T02:41:49;96182.94;;;18.96;100.00
16834;BME280;8533;48.426;10.868;2023-07-16T02:44:14;96205.50;;;19.07;100.00
16834;BME280;8533;48.426;10.868;2023-07-16T02:46:39;96196.09;;;19.01;100.00
16834;BME280;8533;48.426;10.868;2023-07-16T02:49:06;96123.56;;;18.56;100.00
16834;BME280;8533;48.426;10.868;2023-07-16T02:51:32;96177.56;;;18.87;100.00
16834;BME280;8533;48.426;10.868;2023-07-16T02:53:57;96163.81;;;18.85;100.00
16834;BME280;8533;48.426;10.868;2023-07-16T02:56:22;96149.69;;;18.76;100.00
16834;BME280;8533;48.426;10.868;2023-07-16T02:58:48;96180.69;;;18.89;100.00
16834;BME280;8533;48.426;10.868;2023-07-16T03:01:13;96191.00;;;18.91;100.00
16834;BME280;8533;48.426;10.868;2023-07-16T03:03:38;96151.94;;;18.69;100.00
16834;BME280;8533;48.426;10.868;2023-07-16T03:06:04;96195.13;;;18.97;100.00
16834;BME280;8533;48.426;10.868;2023-07-16T03:08:29;96197.16;;;19.00;100.00
16834;BME280;8533;48.426;10.868;2023-07-16T03:10:57;96212.91;;;18.96;100.00
16834;BME280;8533;48.426;10.868;2023-07-16T03:13:22;96199.22;;;18.89;100.00
16834;BME280;8533;48.426;10.868;2023-07-16T03:15:48;96197.38;;;18.90;100.00
16834;BME280;8533;48.426;10.868;2023-07-16T03:18:13;96121.72;;;18.29;100.00
16834;BME280;8533;48.426;10.868;2023-07-16T03:20:38;96212.09;;;18.82;100.00
16834;BME280;8533;48.426;10.868;2023-07-16T03:23:04;96189.59;;;18.52;100.00
16834;BME280;8533;48.426;10.868;2023-07-16T03:25:29;96217.72;;;18.81;100.00
16834;BME280;8533;48.426;10.868;2023-07-16T03:27:54;96216.94;;;18.80;100.00
16834;BME280;8533;48.426;10.868;2023-07-16T03:30:19;96212.72;;;18.79;100.00
16834;BME280;8533;48.426;10.868;2023-07-16T03:32:45;96139.47;;;18.28;100.00
16834;BME280;8533;48.426;10.868;2023-07-16T03:35:10;96220.94;;;18.78;100.00
16834;BME280;8533;48.426;10.868;2023-07-16T03:37:35;96206.22;;;18.72;100.00
16834;BME280;8533;48.426;10.868;2023-07-16T03:40:13;96150.66;;;18.39;100.00
16834;BME280;8533;48.426;10.868;2023-07-16T03:42:39;96189.44;;;18.62;100.00
16834;BME280;8533;48.426;10.868;2023-07-16T03:45:05;96166.22;;;18.41;100.00
16834;BME280;8533;48.426;10.868;2023-07-16T03:47:30;96196.97;;;18.55;100.00
16834;BME280;8533;48.426;10.868;2023-07-16T03:49:55;96198.13;;;18.49;100.00
16834;BME280;8533;48.426;10.868;2023-07-16T03:52:21;96199.22;;;18.48;100.00
16834;BME280;8533;48.426;10.868;2023-07-16T03:54:46;96217.47;;;18.50;100.00
16834;BME280;8533;48.426;10.868;2023-07-16T03:57:11;96222.47;;;18.51;100.00
16834;BME280;8533;48.426;10.868;2023-07-16T03:59:36;96220.81;;;18.55;100.00
16834;BME280;8533;48.426;10.868;2023-07-16T04:02:02;96226.63;;;18.57;100.00
16834;BME280;8533;48.426;10.868;2023-07-16T04:04:27;96227.41;;;18.58;100.00
16834;BME280;8533;48.426;10.868;2023-07-16T04:06:52;96240.06;;;18.61;100.00
16834;BME280;8533;48.426;10.868;2023-07-16T04:09:18;96235.34;;;18.58;100.00
16834;BME280;8533;48.426;10.868;2023-07-16T04:11:43;96253.44;;;18.70;100.00
16834;BME280;8533;48.426;10.868;2023-07-16T04:14:08;96244.47;;;18.65;100.00
16834;BME280;8533;48.426;10.868;2023-07-16T04:16:34;96244.19;;;18.67;100.00
16834;BME280;8533;48.426;10.868;2023-07-16T04:18:59;96253.31;;;18.75;100.00
16834;BME280;8533;48.426;10.868;2023-07-16T04:21:24;96261.78;;;18.77;100.00
16834;BME280;8533;48.426;10.868;2023-07-16T04:23:49;96264.63;;;18.80;100.00
16834;BME280;8533;48.426;10.868;2023-07-16T04:26:15;96261.69;;;18.82;100.00
16834;BME280;8533;48.426;10.868;2023-07-16T04:28:40;96272.50;;;18.85;100.00
16834;BME280;8533;48.426;10.868;2023-07-16T04:31:05;96274.84;;;18.87;100.00
16834;BME280;8533;48.426;10.868;2023-07-16T04:33:31;96287.22;;;18.91;100.00
16834;BME280;8533;48.426;10.868;2023-07-16T04:35:56;96200.66;;;18.41;100.00
16834;BME280;8533;48.426;10.868;2023-07-16T04:38:21;96275.75;;;18.96;100.00
16834;BME280;8533;48.426;10.868;2023-07-16T04:40:47;96273.28;;;18.99;100.00
16834;BME280;8533;48.426;10.868;2023-07-16T04:43:12;96259.34;;;18.94;100.00
16834;BME280;8533;48.426;10.868;2023-07-16T04:45:37;96277.09;;;19.07;100.00
16834;BME280;8533;48.426;10.868;2023-07-16T04:48:04;96262.47;;;18.96;100.00
16834;BME280;8533;48.426;10.868;2023-07-16T04:50:30;96280.34;;;19.04;100.00
16834;BME280;8533;48.426;10.868;2023-07-16T04:52:55;96271.91;;;19.02;100.00
16834;BME280;8533;48.426;10.868;2023-07-16T04:55:20;96282.41;;;19.07;100.00
16834;BME280;8533;48.426;10.868;2023-07-16T04:57:46;96282.59;;;19.11;100.00
16834;BME280;8533;48.426;10.868;2023-07-16T05:00:11;96163.88;;;18.25;100.00
16834;BME280;8533;48.426;10.868;2023-07-16T05:02:36;96291.13;;;19.08;100.00
16834;BME280;8533;48.426;10.868;2023-07-16T05:05:02;96262.84;;;18.89;100.00
16834;BME280;8533;48.426;10.868;2023-07-16T05:07:27;96272.09;;;19.05;100.00
16834;BME280;8533;48.426;10.868;2023-07-16T05:09:53;96273.88;;;19.10;100.00
16834;BME280;8533;48.426;10.868;2023-07-16T05:12:18;96274.66;;;19.11;100.00
16834;BME280;8533;48.426;10.868;2023-07-16T05:14:45;96292.13;;;19.12;100.00
16834;BME280;8533;48.426;10.868;2023-07-16T05:17:11;96293.41;;;19.14;100.00
16834;BME280;8533;48.426;10.868;2023-07-16T05:19:36;96302.34;;;19.18;100.00
16834;BME280;8533;48.426;10.868;2023-07-16T05:22:02;96298.63;;;19.19;100.00
16834;BME280;8533;48.426;10.868;2023-07-16T05:24:27;96219.84;;;18.65;100.00
16834;BME280;8533;48.426;10.868;2023-07-16T05:26:53;96300.19;;;19.20;100.00
16834;BME280;8533;48.426;10.868;2023-07-16T05:29:19;96312.16;;;19.31;100.00
16834;BME280;8533;48.426;10.868;2023-07-16T05:31:44;96303.31;;;19.22;100.00
16834;BME280;8533;48.426;10.868;2023-07-16T05:34:11;96322.47;;;19.33;100.00
16834;BME280;8533;48.426;10.868;2023-07-16T05:36:37;96318.53;;;19.30;100.00
16834;BME280;8533;48.426;10.868;2023-07-16T05:39:02;96320.72;;;19.28;100.00
16834;BME280;8533;48.426;10.868;2023-07-16T05:41:27;96209.50;;;18.50;100.00
16834;BME280;8533;48.426;10.868;2023-07-16T05:43:53;96317.25;;;19.14;100.00
16834;BME280;8533;48.426;10.868;2023-07-16T05:46:18;96338.59;;;19.23;100.00
16834;BME280;8533;48.426;10.868;2023-07-16T05:48:43;96292.41;;;18.83;100.00
16834;BME280;8533;48.426;10.868;2023-07-16T05:51:08;96331.72;;;19.08;100.00
16834;BME280;8533;48.426;10.868;2023-07-16T05:53:34;96343.22;;;19.17;100.00
16834;BME280;8533;48.426;10.868;2023-07-16T05:55:59;96348.00;;;19.15;100.00
16834;BME280;8533;48.426;10.868;2023-07-16T05:58:24;96326.41;;;18.94;100.00
16834;BME280;8533;48.426;10.868;2023-07-16T06:00:50;96248.34;;;18.41;100.00
16834;BME280;8533;48.426;10.868;2023-07-16T06:03:15;96363.03;;;19.06;100.00
16834;BME280;8533;48.426;10.868;2023-07-16T06:05:42;96369.91;;;19.07;100.00
16834;BME280;8533;48.426;10.868;2023-07-16T06:08:07;96364.72;;;19.02;100.00
16834;BME280;8533;48.426;10.868;2023-07-16T06:10:36;96344.44;;;18.79;100.00
16834;BME280;8533;48.426;10.868;2023-07-16T06:13:01;96355.34;;;18.91;100.00
16834;BME280;8533;48.426;10.868;2023-07-16T06:15:27;96369.09;;;18.93;100.00
16834;BME280;8533;48.426;10.868;2023-07-16T06:17:52;96370.47;;;18.90;100.00
16834;BME280;8533;48.426;10.868;2023-07-16T06:20:17;96375.06;;;18.85;100.00
16834;BME280;8533;48.426;10.868;2023-07-16T06:22:43;96372.53;;;18.80;100.00
16834;BME280;8533;48.426;10.868;2023-07-16T06:25:08;96360.50;;;18.68;100.00
16834;BME280;8533;48.426;10.868;2023-07-16T06:27:36;96376.63;;;18.72;100.00
16834;BME280;8533;48.426;10.868;2023-07-16T06:30:01;96368.63;;;18.58;100.00
16834;BME280;8533;48.426;10.868;2023-07-16T06:32:26;96264.94;;;17.81;100.00
16834;BME280;8533;48.426;10.868;2023-07-16T06:34:52;96391.09;;;18.61;100.00
16834;BME280;8533;48.426;10.868;2023-07-16T06:37:17;96237.94;;;17.23;100.00
16834;BME280;8533;48.426;10.868;2023-07-16T06:39:42;96388.97;;;18.44;100.00
16834;BME280;8533;48.426;10.868;2023-07-16T06:42:08;96265.81;;;17.53;100.00
16834;BME280;8533;48.426;10.868;2023-07-16T06:44:33;96302.28;;;17.37;100.00
16834;BME280;8533;48.426;10.868;2023-07-16T06:46:58;96222.34;;;17.22;100.00
16834;BME280;8533;48.426;10.868;2023-07-16T06:49:24;96399.72;;;18.15;100.00
16834;BME280;8533;48.426;10.868;2023-07-16T06:51:49;96172.91;;;16.61;100.00
16834;BME280;8533;48.426;10.868;2023-07-16T06:54:14;96407.56;;;18.02;100.00
16834;BME280;8533;48.426;10.868;2023-07-16T06:56:40;96297.88;;;17.28;100.00
16834;BME280;8533;48.426;10.868;2023-07-16T06:59:05;96390.91;;;17.82;100.00
16834;BME280;8533;48.426;10.868;2023-07-16T07:01:30;96375.41;;;17.71;100.00
16834;BME280;8533;48.426;10.868;2023-07-16T07:03:56;96193.50;;;16.59;100.00
16834;BME280;8533;48.426;10.868;2023-07-16T07:06:21;96359.78;;;17.50;100.00
16834;BME280;8533;48.426;10.868;2023-07-16T07:08:47;96381.50;;;17.71;100.00
16834;BME280;8533;48.426;10.868;2023-07-16T07:11:12;96255.69;;;16.75;100.00
16834;BME280;8533;48.426;10.868;2023-07-16T07:13:38;96287.13;;;17.00;100.00
16834;BME280;8533;48.426;10.868;2023-07-16T07:16:03;96374.06;;;17.49;100.00
16834;BME280;8533;48.426;10.868;2023-07-16T07:18:28;96399.16;;;17.52;100.00
16834;BME280;8533;48.426;10.868;2023-07-16T07:20:54;96387.66;;;17.43;100.00
16834;BME280;8533;48.426;10.868;2023-07-16T07:23:19;96219.81;;;16.40;100.00
16834;BME280;8533;48.426;10.868;2023-07-16T07:25:51;96327.09;;;17.17;100.00
16834;BME280;8533;48.426;10.868;2023-07-16T07:28:18;96348.91;;;17.28;100.00
16834;BME280;8533;48.426;10.868;2023-07-16T07:30:44;96378.34;;;17.22;100.00
16834;BME280;8533;48.426;10.868;2023-07-16T07:33:10;96451.13;;;17.43;100.00
16834;BME280;8533;48.426;10.868;2023-07-16T07:35:35;96396.91;;;17.40;100.00
16834;BME280;8533;48.426;10.868;2023-07-16T07:38:01;96397.81;;;17.54;100.00
16834;BME280;8533;48.426;10.868;2023-07-16T07:40:26;96397.72;;;17.65;100.00
16834;BME280;8533;48.426;10.868;2023-07-16T07:42:52;96334.75;;;17.43;100.00
16834;BME280;8533;48.426;10.868;2023-07-16T07:45:17;96364.28;;;17.92;100.00
16834;BME280;8533;48.426;10.868;2023-07-16T07:47:42;96319.13;;;17.84;100.00
16834;BME280;8533;48.426;10.868;2023-07-16T07:50:08;96322.94;;;17.97;100.00
16834;BME280;8533;48.426;10.868;2023-07-16T07:52:33;96277.66;;;17.79;100.00
16834;BME280;8533;48.426;10.868;2023-07-16T07:54:59;96361.25;;;18.37;100.00
16834;BME280;8533;48.426;10.868;2023-07-16T07:57:24;96290.94;;;17.93;100.00
16834;BME280;8533;48.426;10.868;2023-07-16T07:59:49;96331.94;;;18.14;100.00
16834;BME280;8533;48.426;10.868;2023-07-16T08:02:17;96332.31;;;18.08;100.00
16834;BME280;8533;48.426;10.868;2023-07-16T08:04:43;96324.13;;;18.23;100.00
16834;BME280;8533;48.426;10.868;2023-07-16T08:07:09;96374.94;;;18.62;100.00
16834;BME280;8533;48.426;10.868;2023-07-16T08:09:34;96339.81;;;18.71;100.00
16834;BME280;8533;48.426;10.868;2023-07-16T08:11:59;96361.06;;;18.98;100.00
16834;BME280;8533;48.426;10.868;2023-07-16T08:14:25;96356.47;;;19.03;100.00
16834;BME280;8533;48.426;10.868;2023-07-16T08:16:50;96353.03;;;19.17;100.00
16834;BME280;8533;48.426;10.868;2023-07-16T08:19:15;96361.28;;;19.42;100.00
16834;BME280;8533;48.426;10.868;2023-07-16T08:21:40;96362.88;;;19.57;100.00
16834;BME280;8533;48.426;10.868;2023-07-16T08:24:06;96330.63;;;19.64;100.00
16834;BME280;8533;48.426;10.868;2023-07-16T08:26:32;96367.16;;;20.30;100.00
16834;BME280;8533;48.426;10.868;2023-07-16T08:28:57;96353.22;;;20.47;100.00
16834;BME280;8533;48.426;10.868;2023-07-16T08:31:22;96358.00;;;20.36;100.00
16834;BME280;8533;48.426;10.868;2023-07-16T08:33:48;96368.16;;;20.20;100.00
16834;BME280;8533;48.426;10.868;2023-07-16T08:36:13;96370.84;;;20.07;100.00
16834;BME280;8533;48.426;10.868;2023-07-16T08:38:38;96363.56;;;19.76;100.00
16834;BME280;8533;48.426;10.868;2023-07-16T08:41:03;96364.66;;;19.62;100.00
16834;BME280;8533;48.426;10.868;2023-07-16T08:43:29;96369.16;;;19.48;100.00
16834;BME280;8533;48.426;10.868;2023-07-16T08:45:56;96376.44;;;19.42;100.00
16834;BME280;8533;48.426;10.868;2023-07-16T08:48:22;96325.44;;;19.04;100.00
16834;BME280;8533;48.426;10.868;2023-07-16T08:50:48;96350.66;;;19.15;100.00
16834;BME280;8533;48.426;10.868;2023-07-16T08:53:17;96386.94;;;19.33;100.00
16834;BME280;8533;48.426;10.868;2023-07-16T08:55:44;96382.50;;;19.42;100.00
16834;BME280;8533;48.426;10.868;2023-07-16T08:58:12;96395.88;;;19.37;100.00
16834;BME280;8533;48.426;10.868;2023-07-16T09:00:40;96393.31;;;19.46;100.00
16834;BME280;8533;48.426;10.868;2023-07-16T09:03:06;96363.63;;;19.30;100.00
16834;BME280;8533;48.426;10.868;2023-07-16T09:05:32;96358.53;;;19.34;100.00
16834;BME280;8533;48.426;10.868;2023-07-16T09:07:59;96392.59;;;19.95;100.00
16834;BME280;8533;48.426;10.868;2023-07-16T09:10:25;96397.13;;;20.44;100.00
16834;BME280;8533;48.426;10.868;2023-07-16T09:12:50;96394.09;;;20.51;100.00
16834;BME280;8533;48.426;10.868;2023-07-16T09:15:18;96397.13;;;20.44;100.00
16834;BME280;8533;48.426;10.868;2023-07-16T09:17:47;96390.56;;;20.42;100.00
16834;BME280;8533;48.426;10.868;2023-07-16T09:20:15;96395.75;;;20.47;100.00
16834;BME280;8533;48.426;10.868;2023-07-16T09:22:41;96383.63;;;20.54;100.00
16834;BME280;8533;48.426;10.868;2023-07-16T09:25:06;96370.16;;;20.73;100.00
16834;BME280;8533;48.426;10.868;2023-07-16T09:27:32;96365.31;;;20.75;100.00
16834;BME280;8533;48.426;10.868;2023-07-16T09:29:57;96329.66;;;20.54;100.00
16834;BME280;8533;48.426;10.868;2023-07-16T09:32:38;96382.06;;;21.38;100.00
16834;BME280;8533;48.426;10.868;2023-07-16T09:35:09;96273.53;;;20.86;100.00
16834;BME280;8533;48.426;10.868;2023-07-16T09:37:36;96342.78;;;21.43;100.00
16834;BME280;8533;48.426;10.868;2023-07-16T09:40:02;96362.44;;;21.73;100.00
16834;BME280;8533;48.426;10.868;2023-07-16T09:42:29;96361.91;;;22.11;100.00
16834;BME280;8533;48.426;10.868;2023-07-16T09:44:55;96364.41;;;22.24;100.00
16834;BME280;8533;48.426;10.868;2023-07-16T09:47:22;96344.47;;;21.96;100.00
16834;BME280;8533;48.426;10.868;2023-07-16T09:49:47;96351.78;;;21.73;100.00
16834;BME280;8533;48.426;10.868;2023-07-16T09:52:12;96330.28;;;21.52;100.00
16834;BME280;8533;48.426;10.868;2023-07-16T09:54:39;96356.66;;;21.80;100.00
16834;BME280;8533;48.426;10.868;2023-07-16T09:57:06;96316.28;;;21.29;100.00
16834;BME280;8533;48.426;10.868;2023-07-16T09:59:33;96361.41;;;22.00;100.00
16834;BME280;8533;48.426;10.868;2023-07-16T10:01:59;96302.78;;;22.00;100.00
16834;BME280;8533;48.426;10.868;2023-07-16T10:04:24;96320.97;;;22.41;100.00
16834;BME280;8533;48.426;10.868;2023-07-16T10:12:07;96210.91;;;22.78;95.41
16834;BME280;8533;48.426;10.868;2023-07-16T10:14:39;96359.97;;;22.71;100.00
16834;BME280;8533;48.426;10.868;2023-07-16T10:17:05;96245.91;;;21.87;100.00
16834;BME280;8533;48.426;10.868;2023-07-16T10:19:30;96351.47;;;22.87;100.00
16834;BME280;8533;48.426;10.868;2023-07-16T10:21:56;96313.84;;;22.62;99.63
16834;BME280;8533;48.426;10.868;2023-07-16T10:24:27;96206.44;;;21.81;98.59
16834;BME280;8533;48.426;10.868;2023-07-16T10:26:52;96338.19;;;22.78;91.91
16834;BME280;8533;48.426;10.868;2023-07-16T10:29:17;96356.38;;;22.85;100.00
16834;BME280;8533;48.426;10.868;2023-07-16T10:31:43;96363.56;;;23.01;91.53
16834;BME280;8533;48.426;10.868;2023-07-16T10:34:08;96364.06;;;22.86;92.91
16834;BME280;8533;48.426;10.868;2023-07-16T10:36:38;96339.00;;;22.10;100.00
16834;BME280;8533;48.426;10.868;2023-07-16T10:39:04;96304.53;;;22.13;100.00
16834;BME280;8533;48.426;10.868;2023-07-16T10:41:31;96367.81;;;22.68;98.60
16834;BME280;8533;48.426;10.868;2023-07-16T10:43:57;96357.19;;;22.51;100.00
16834;BME280;8533;48.426;10.868;2023-07-16T10:46:23;96268.94;;;22.09;100.00
16834;BME280;8533;48.426;10.868;2023-07-16T10:48:48;96355.47;;;22.37;100.00
16834;BME280;8533;48.426;10.868;2023-07-16T10:51:17;96349.66;;;22.61;100.00
16834;BME280;8533;48.426;10.868;2023-07-16T10:53:43;96318.88;;;22.64;100.00
16834;BME280;8533;48.426;10.868;2023-07-16T10:56:09;96357.44;;;23.01;100.00
16834;BME280;8533;48.426;10.868;2023-07-16T10:58:36;96299.47;;;22.46;100.00
16834;BME280;8533;48.426;10.868;2023-07-16T11:01:02;96360.13;;;22.92;98.63
16834;BME280;8533;48.426;10.868;2023-07-16T11:03:27;96361.41;;;22.86;100.00
16834;BME280;8533;48.426;10.868;2023-07-16T11:05:53;96372.88;;;22.78;100.00
16834;BME280;8533;48.426;10.868;2023-07-16T11:08:25;96251.53;;;21.60;100.00
16834;BME280;8533;48.426;10.868;2023-07-16T11:10:57;96285.47;;;22.58;100.00
16834;BME280;8533;48.426;10.868;2023-07-16T11:13:31;96346.97;;;23.25;97.77
16834;BME280;8533;48.426;10.868;2023-07-16T11:15:56;96356.22;;;23.66;93.18
16834;BME280;8533;48.426;10.868;2023-07-16T11:18:23;96280.94;;;23.43;92.54
16834;BME280;8533;48.426;10.868;2023-07-16T11:20:52;96321.31;;;23.41;100.00
16834;BME280;8533;48.426;10.868;2023-07-16T11:23:18;96342.91;;;24.07;90.38
16834;BME280;8533;48.426;10.868;2023-07-16T11:25:48;96284.56;;;24.30;84.22
16834;BME280;8533;48.426;10.868;2023-07-16T11:28:13;96323.25;;;25.11;83.06
16834;BME280;8533;48.426;10.868;2023-07-16T11:30:39;96317.81;;;24.86;85.80
16834;BME280;8533;48.426;10.868;2023-07-16T11:33:09;96253.69;;;24.78;79.78
16834;BME280;8533;48.426;10.868;2023-07-16T11:35:36;96283.47;;;24.88;77.94
16834;BME280;8533;48.426;10.868;2023-07-16T11:38:01;96332.25;;;25.06;79.80
16834;BME280;8533;48.426;10.868;2023-07-16T11:40:28;96352.38;;;25.12;78.33
16834;BME280;8533;48.426;10.868;2023-07-16T11:42:53;96341.16;;;24.65;84.04
16834;BME280;8533;48.426;10.868;2023-07-16T11:45:23;96314.97;;;25.16;78.64
16834;BME280;8533;48.426;10.868;2023-07-16T11:47:51;96330.88;;;24.88;89.31
16834;BME280;8533;48.426;10.868;2023-07-16T11:50:17;96290.50;;;24.81;86.50
16834;BME280;8533;48.426;10.868;2023-07-16T11:52:42;96330.75;;;25.66;75.09
16834;BME280;8533;48.426;10.868;2023-07-16T11:55:08;96328.75;;;26.03;73.51
16834;BME280;8533;48.426;10.868;2023-07-16T11:57:34;96277.91;;;25.30;76.70
16834;BME280;8533;48.426;10.868;2023-07-16T11:59:59;96214.31;;;25.39;71.70
16834;BME280;8533;48.426;10.868;2023-07-16T12:02:26;96322.72;;;26.46;68.22
16834;BME280;8533;48.426;10.868;2023-07-16T12:04:52;96318.66;;;25.23;73.97
16834;BME280;8533;48.426;10.868;2023-07-16T12:07:32;96320.72;;;26.03;68.41
16834;BME280;8533;48.426;10.868;2023-07-16T12:09:57;96315.72;;;26.01;69.31
16834;BME280;8533;48.426;10.868;2023-07-16T12:12:23;96315.31;;;25.51;71.29
16834;BME280;8533;48.426;10.868;2023-07-16T12:14:48;96297.56;;;25.34;73.75
16834;BME280;8533;48.426;10.868;2023-07-16T12:17:13;96287.72;;;24.44;79.20
16834;BME280;8533;48.426;10.868;2023-07-16T12:19:39;96286.84;;;24.97;74.69
16834;BME280;8533;48.426;10.868;2023-07-16T12:22:04;96309.69;;;25.92;72.41
16834;BME280;8533;48.426;10.868;2023-07-16T12:24:30;96308.25;;;26.22;71.65
16834;BME280;8533;48.426;10.868;2023-07-16T12:26:55;96271.53;;;26.82;64.69
16834;BME280;8533;48.426;10.868;2023-07-16T12:29:20;96323.59;;;27.72;62.46
16834;BME280;8533;48.426;10.868;2023-07-16T12:31:46;96301.22;;;28.03;60.42
16834;BME280;8533;48.426;10.868;2023-07-16T12:34:11;96299.31;;;28.23;58.35
16834;BME280;8533;48.426;10.868;2023-07-16T12:36:36;96306.00;;;27.94;62.50
16834;BME280;8533;48.426;10.868;2023-07-16T12:39:04;96297.03;;;27.20;63.67
16834;BME280;8533;48.426;10.868;2023-07-16T12:41:30;96269.16;;;27.44;60.61
16834;BME280;8533;48.426;10.868;2023-07-16T12:43:55;96296.47;;;27.96;59.82
16834;BME280;8533;48.426;10.868;2023-07-16T12:46:20;96294.41;;;28.09;56.57
16834;BME280;8533;48.426;10.868;2023-07-16T12:48:45;96291.72;;;28.47;55.62
16834;BME280;8533;48.426;10.868;2023-07-16T12:51:11;96254.00;;;28.67;51.51
16834;BME280;8533;48.426;10.868;2023-07-16T12:53:36;96257.56;;;29.20;50.38
16834;BME280;8533;48.426;10.868;2023-07-16T12:56:01;96249.59;;;29.50;49.41